sensor_id;sensor_type;location;lat;lon;timestamp;temperature;humidity
37032;DHT22;22940;52.266;10.536;2023-02-26T00:30:21;1.70;1.00
37032;DHT22;22940;52.266;10.536;2023-02-26T00:32:49;1.80;1.00
37032;DHT22;22940;52.266;10.536;2023-02-26T00:50:34;1.90;1.00
37032;DHT22;22940;52.266;10.536;2023-02-26T01:00:28;1.60;4.40
37032;DHT22;22940;52.266;10.536;2023-02-26T01:15:10;1.70;10.60
37032;DHT22;22940;52.266;10.536;2023-02-26T01:20:13;1.50;11.80
37032;DHT22;22940;52.266;10.536;2023-02-26T01:25:23;1.40;13.60
37032;DHT22;22940;52.266;10.536;2023-02-26T01:30:16;1.40;14.50
37032;DHT22;22940;52.266;10.536;2023-02-26T01:32:43;1.40;17.60
37032;DHT22;22940;52.266;10.536;2023-02-26T08:14:26;4.00;1.00
37032;DHT22;22940;52.266;10.536;2023-02-26T08:16:52;4.20;1.00
37032;DHT22;22940;52.266;10.536;2023-02-26T08:19:17;4.50;1.00
37032;DHT22;22940;52.266;10.536;2023-02-26T08:24:09;4.70;1.00
37032;DHT22;22940;52.266;10.536;2023-02-26T08:26:35;4.70;1.00
37032;DHT22;22940;52.266;10.536;2023-02-26T08:29:01;4.40;1.00
37032;DHT22;22940;52.266;10.536;2023-02-26T08:31:27;4.20;1.00
37032;DHT22;22940;52.266;10.536;2023-02-26T08:33:52;4.20;1.00
37032;DHT22;22940;52.266;10.536;2023-02-26T08:36:18;4.10;1.00
37032;DHT22;22940;52.266;10.536;2023-02-26T08:38:46;4.10;1.00
37032;DHT22;22940;52.266;10.536;2023-02-26T08:41:11;4.00;1.00
37032;DHT22;22940;52.266;10.536;2023-02-26T08:43:37;4.00;1.00
37032;DHT22;22940;52.266;10.536;2023-02-26T08:46:03;3.80;1.00
37032;DHT22;22940;52.266;10.536;2023-02-26T08:48:28;3.80;1.00
37032;DHT22;22940;52.266;10.536;2023-02-26T08:50:54;3.80;1.00
37032;DHT22;22940;52.266;10.536;2023-02-26T08:53:19;3.80;1.00
37032;DHT22;22940;52.266;10.536;2023-02-26T08:55:49;3.70;1.00
37032;DHT22;22940;52.266;10.536;2023-02-26T08:58:14;3.80;1.00
37032;DHT22;22940;52.266;10.536;2023-02-26T09:00:40;3.80;1.00
37032;DHT22;22940;52.266;10.536;2023-02-26T09:03:05;3.80;1.00
37032;DHT22;22940;52.266;10.536;2023-02-26T09:05:31;3.70;1.00
37032;DHT22;22940;52.266;10.536;2023-02-26T09:07:56;3.70;1.00
37032;DHT22;22940;52.266;10.536;2023-02-26T09:10:22;3.60;1.00
37032;DHT22;22940;52.266;10.536;2023-02-26T09:12:48;3.60;1.00
37032;DHT22;22940;52.266;10.536;2023-02-26T09:15:13;3.80;1.00
37032;DHT22;22940;52.266;10.536;2023-02-26T09:17:39;3.90;1.00
37032;DHT22;22940;52.266;10.536;2023-02-26T09:20:05;3.70;1.00
37032;DHT22;22940;52.266;10.536;2023-02-26T09:22:31;3.90;1.00
37032;DHT22;22940;52.266;10.536;2023-02-26T09:24:56;3.90;1.00
37032;DHT22;22940;52.266;10.536;2023-02-26T09:27:22;3.60;1.00
37032;DHT22;22940;52.266;10.536;2023-02-26T09:29:47;3.60;1.00
37032;DHT22;22940;52.266;10.536;2023-02-26T09:32:13;3.40;1.00
37032;DHT22;22940;52.266;10.536;2023-02-26T09:34:38;3.50;1.00
37032;DHT22;22940;52.266;10.536;2023-02-26T09:37:05;3.40;1.00
37032;DHT22;22940;52.266;10.536;2023-02-26T09:39:31;3.80;1.00
37032;DHT22;22940;52.266;10.536;2023-02-26T09:44:48;4.40;1.00
37032;DHT22;22940;52.266;10.536;2023-02-26T09:47:16;4.60;1.00
37032;DHT22;22940;52.266;10.536;2023-02-26T09:49:55;4.50;1.00
37032;DHT22;22940;52.266;10.536;2023-02-26T09:54:51;4.10;1.00
37032;DHT22;22940;52.266;10.536;2023-02-26T09:57:24;4.30;1.00
37032;DHT22;22940;52.266;10.536;2023-02-26T09:59:51;4.10;1.00
37032;DHT22;22940;52.266;10.536;2023-02-26T10:07:39;4.40;1.00
37032;DHT22;22940;52.266;10.536;2023-02-26T10:12:39;4.60;1.00
37032;DHT22;22940;52.266;10.536;2023-02-26T10:15:14;4.70;1.00
37032;DHT22;22940;52.266;10.536;2023-02-26T10:20:10;5.20;1.00
37032;DHT22;22940;52.266;10.536;2023-02-26T10:22:40;5.40;1.00
37032;DHT22;22940;52.266;10.536;2023-02-26T10:25:15;5.50;1.00
37032;DHT22;22940;52.266;10.536;2023-02-26T10:28:05;5.70;1.00
37032;DHT22;22940;52.266;10.536;2023-02-26T10:30:36;6.30;1.00
37032;DHT22;22940;52.266;10.536;2023-02-26T10:33:20;7.70;1.00
37032;DHT22;22940;52.266;10.536;2023-02-26T10:35:51;8.80;1.00
37032;DHT22;22940;52.266;10.536;2023-02-26T10:38:18;10.50;1.00
37032;DHT22;22940;52.266;10.536;2023-02-26T10:41:04;11.50;1.00
37032;DHT22;22940;52.266;10.536;2023-02-26T10:43:37;11.70;1.00
37032;DHT22;22940;52.266;10.536;2023-02-26T10:46:17;11.10;1.00
37032;DHT22;22940;52.266;10.536;2023-02-26T10:49:03;9.90;1.00
37032;DHT22;22940;52.266;10.536;2023-02-26T10:51:31;10.40;1.00
37032;DHT22;22940;52.266;10.536;2023-02-26T10:54:12;10.50;1.00
37032;DHT22;22940;52.266;10.536;2023-02-26T10:56:39;9.20;1.00
37032;DHT22;22940;52.266;10.536;2023-02-26T10:59:05;9.30;1.00
37032;DHT22;22940;52.266;10.536;2023-02-26T11:01:31;7.90;1.00
37032;DHT22;22940;52.266;10.536;2023-02-26T11:04:00;7.40;1.00
37032;DHT22;22940;52.266;10.536;2023-02-26T11:06:31;8.80;1.00
37032;DHT22;22940;52.266;10.536;2023-02-26T11:08:58;9.70;1.00
37032;DHT22;22940;52.266;10.536;2023-02-26T11:14:09;9.60;1.00
37032;DHT22;22940;52.266;10.536;2023-02-26T11:16:34;9.70;1.00
37032;DHT22;22940;52.266;10.536;2023-02-26T11:19:05;10.30;1.00
37032;DHT22;22940;52.266;10.536;2023-02-26T11:21:37;10.90;1.00
37032;DHT22;22940;52.266;10.536;2023-02-26T11:24:04;10.10;1.00
37032;DHT22;22940;52.266;10.536;2023-02-26T11:26:33;10.80;1.00
37032;DHT22;22940;52.266;10.536;2023-02-26T11:28:58;10.90;1.00
37032;DHT22;22940;52.266;10.536;2023-02-26T11:31:25;9.70;1.00
37032;DHT22;22940;52.266;10.536;2023-02-26T11:34:03;9.50;1.00
37032;DHT22;22940;52.266;10.536;2023-02-26T11:36:30;10.20;1.00
37032;DHT22;22940;52.266;10.536;2023-02-26T11:39:02;10.10;1.00
37032;DHT22;22940;52.266;10.536;2023-02-26T11:41:28;9.20;1.00
37032;DHT22;22940;52.266;10.536;2023-02-26T11:43:57;9.00;1.00
37032;DHT22;22940;52.266;10.536;2023-02-26T11:46:23;9.40;1.00
37032;DHT22;22940;52.266;10.536;2023-02-26T11:48:49;9.30;1.00
37032;DHT22;22940;52.266;10.536;2023-02-26T11:51:21;8.70;1.00
37032;DHT22;22940;52.266;10.536;2023-02-26T11:53:52;9.10;1.00
37032;DHT22;22940;52.266;10.536;2023-02-26T11:56:24;8.80;1.00
37032;DHT22;22940;52.266;10.536;2023-02-26T11:58:51;9.00;1.00
37032;DHT22;22940;52.266;10.536;2023-02-26T12:01:17;9.60;1.00
37032;DHT22;22940;52.266;10.536;2023-02-26T12:03:44;9.70;1.00
37032;DHT22;22940;52.266;10.536;2023-02-26T12:06:18;10.00;1.00
37032;DHT22;22940;52.266;10.536;2023-02-26T12:08:44;10.40;1.00
37032;DHT22;22940;52.266;10.536;2023-02-26T12:18:32;8.90;1.00
37032;DHT22;22940;52.266;10.536;2023-02-26T12:45:10;9.90;1.00
37032;DHT22;22940;52.266;10.536;2023-02-26T12:50:44;10.10;1.00
37032;DHT22;22940;52.266;10.536;2023-02-26T12:55:50;10.40;1.00
37032;DHT22;22940;52.266;10.536;2023-02-26T13:01:07;10.40;1.00
37032;DHT22;22940;52.266;10.536;2023-02-26T13:09:31;9.00;1.00
37032;DHT22;22940;52.266;10.536;2023-02-26T13:14:04;10.00;1.00
37032;DHT22;22940;52.266;10.536;2023-02-26T13:16:53;10.00;1.00
37032;DHT22;22940;52.266;10.536;2023-02-26T13:21:49;9.60;1.00
37032;DHT22;22940;52.266;10.536;2023-02-26T13:26:56;10.10;1.00
37032;DHT22;22940;52.266;10.536;2023-02-26T13:29:25;9.90;1.00
37032;DHT22;22940;52.266;10.536;2023-02-26T13:37:04;9.50;1.00
37032;DHT22;22940;52.266;10.536;2023-02-26T13:44:50;9.40;1.00
37032;DHT22;22940;52.266;10.536;2023-02-26T13:52:33;9.20;1.00
37032;DHT22;22940;52.266;10.536;2023-02-26T13:55:00;9.50;1.00
37032;DHT22;22940;52.266;10.536;2023-02-26T13:59:59;8.90;1.00
37032;DHT22;22940;52.266;10.536;2023-02-26T14:05:27;8.60;1.00
37032;DHT22;22940;52.266;10.536;2023-02-26T14:08:04;8.30;1.00
37032;DHT22;22940;52.266;10.536;2023-02-26T14:10:35;8.00;1.00
37032;DHT22;22940;52.266;10.536;2023-02-26T14:13:14;8.00;1.00
37032;DHT22;22940;52.266;10.536;2023-02-26T14:15:41;8.00;1.00
37032;DHT22;22940;52.266;10.536;2023-02-26T14:23:57;8.00;1.00
37032;DHT22;22940;52.266;10.536;2023-02-26T14:26:26;8.00;1.00
37032;DHT22;22940;52.266;10.536;2023-02-26T14:34:12;7.90;1.00
37032;DHT22;22940;52.266;10.536;2023-02-26T14:36:55;7.60;1.00
37032;DHT22;22940;52.266;10.536;2023-02-26T14:39:36;7.60;1.00
37032;DHT22;22940;52.266;10.536;2023-02-26T14:42:04;7.20;1.00
37032;DHT22;22940;52.266;10.536;2023-02-26T14:44:33;7.40;1.00
37032;DHT22;22940;52.266;10.536;2023-02-26T14:47:00;7.50;1.00
37032;DHT22;22940;52.266;10.536;2023-02-26T14:49:40;7.50;1.00
37032;DHT22;22940;52.266;10.536;2023-02-26T15:00:18;7.60;1.00
37032;DHT22;22940;52.266;10.536;2023-02-26T15:05:22;7.60;1.00
37032;DHT22;22940;52.266;10.536;2023-02-26T15:23:43;6.90;1.00
37032;DHT22;22940;52.266;10.536;2023-02-26T15:26:31;7.00;1.00
37032;DHT22;22940;52.266;10.536;2023-02-26T15:28:56;6.90;1.00
37032;DHT22;22940;52.266;10.536;2023-02-26T15:31:35;7.00;1.00
37032;DHT22;22940;52.266;10.536;2023-02-26T15:34:01;6.90;1.00
37032;DHT22;22940;52.266;10.536;2023-02-26T15:36:28;6.80;1.00
37032;DHT22;22940;52.266;10.536;2023-02-26T15:38:55;6.80;1.00
37032;DHT22;22940;52.266;10.536;2023-02-26T15:41:21;6.60;1.00
37032;DHT22;22940;52.266;10.536;2023-02-26T15:44:09;6.50;1.00
37032;DHT22;22940;52.266;10.536;2023-02-26T15:46:39;6.40;1.00
37032;DHT22;22940;52.266;10.536;2023-02-26T15:49:09;6.50;1.00
37032;DHT22;22940;52.266;10.536;2023-02-26T15:51:36;6.40;1.00
37032;DHT22;22940;52.266;10.536;2023-02-26T15:54:02;6.50;1.00
37032;DHT22;22940;52.266;10.536;2023-02-26T15:56:31;6.50;1.00
37032;DHT22;22940;52.266;10.536;2023-02-26T15:58:59;6.50;1.00
37032;DHT22;22940;52.266;10.536;2023-02-26T16:01:25;6.50;1.00
37032;DHT22;22940;52.266;10.536;2023-02-26T16:03:52;6.60;1.00
37032;DHT22;22940;52.266;10.536;2023-02-26T16:06:19;6.60;1.00
37032;DHT22;22940;52.266;10.536;2023-02-26T16:08:48;6.60;1.00
37032;DHT22;22940;52.266;10.536;2023-02-26T16:11:13;6.50;1.00
37032;DHT22;22940;52.266;10.536;2023-02-26T16:13:40;6.40;1.00
37032;DHT22;22940;52.266;10.536;2023-02-26T16:16:07;6.40;1.00
37032;DHT22;22940;52.266;10.536;2023-02-26T16:18:35;6.40;1.00
37032;DHT22;22940;52.266;10.536;2023-02-26T16:21:01;6.30;1.00
37032;DHT22;22940;52.266;10.536;2023-02-26T16:23:49;6.30;1.00
37032;DHT22;22940;52.266;10.536;2023-02-26T16:26:31;6.30;1.00
37032;DHT22;22940;52.266;10.536;2023-02-26T16:31:57;6.20;1.00
37032;DHT22;22940;52.266;10.536;2023-02-26T16:34:31;6.00;1.00
37032;DHT22;22940;52.266;10.536;2023-02-26T16:36:58;5.80;1.00
37032;DHT22;22940;52.266;10.536;2023-02-26T16:39:34;5.90;1.00
37032;DHT22;22940;52.266;10.536;2023-02-26T16:42:00;5.90;1.00
37032;DHT22;22940;52.266;10.536;2023-02-26T16:46:55;5.90;1.00
37032;DHT22;22940;52.266;10.536;2023-02-26T16:49:25;6.00;1.00
37032;DHT22;22940;52.266;10.536;2023-02-26T16:51:52;6.00;1.00
37032;DHT22;22940;52.266;10.536;2023-02-26T16:56:47;6.00;1.00
37032;DHT22;22940;52.266;10.536;2023-02-26T17:01:48;6.10;1.00
37032;DHT22;22940;52.266;10.536;2023-02-26T17:04:14;6.00;1.00
37032;DHT22;22940;52.266;10.536;2023-02-26T17:06:41;6.00;1.00
37032;DHT22;22940;52.266;10.536;2023-02-26T17:09:07;5.90;1.00
37032;DHT22;22940;52.266;10.536;2023-02-26T17:11:48;5.70;1.00
37032;DHT22;22940;52.266;10.536;2023-02-26T17:14:18;5.80;1.00
37032;DHT22;22940;52.266;10.536;2023-02-26T17:16:47;5.70;1.00
37032;DHT22;22940;52.266;10.536;2023-02-26T17:19:13;5.80;1.00
37032;DHT22;22940;52.266;10.536;2023-02-26T17:21:41;5.80;1.00
37032;DHT22;22940;52.266;10.536;2023-02-26T17:24:08;5.80;1.00
37032;DHT22;22940;52.266;10.536;2023-02-26T17:26:35;5.70;1.00
37032;DHT22;22940;52.266;10.536;2023-02-26T17:29:01;5.70;1.00
37032;DHT22;22940;52.266;10.536;2023-02-26T17:31:26;5.60;1.00
37032;DHT22;22940;52.266;10.536;2023-02-26T17:33:52;5.60;1.00
37032;DHT22;22940;52.266;10.536;2023-02-26T17:36:18;5.60;1.00
37032;DHT22;22940;52.266;10.536;2023-02-26T17:38:45;5.60;1.00
37032;DHT22;22940;52.266;10.536;2023-02-26T17:41:13;5.60;1.00
37032;DHT22;22940;52.266;10.536;2023-02-26T17:43:39;5.50;1.00
37032;DHT22;22940;52.266;10.536;2023-02-26T17:46:04;5.30;1.00
37032;DHT22;22940;52.266;10.536;2023-02-26T17:48:30;5.40;1.00
37032;DHT22;22940;52.266;10.536;2023-02-26T17:50:56;5.50;1.00
37032;DHT22;22940;52.266;10.536;2023-02-26T17:53:22;5.40;1.00
37032;DHT22;22940;52.266;10.536;2023-02-26T17:55:49;5.50;1.00
37032;DHT22;22940;52.266;10.536;2023-02-26T17:58:16;5.40;1.00
37032;DHT22;22940;52.266;10.536;2023-02-26T18:00:42;5.40;1.00
37032;DHT22;22940;52.266;10.536;2023-02-26T18:03:09;5.30;1.00
37032;DHT22;22940;52.266;10.536;2023-02-26T18:05:35;5.20;1.00
37032;DHT22;22940;52.266;10.536;2023-02-26T18:08:05;5.00;1.00
37032;DHT22;22940;52.266;10.536;2023-02-26T18:10:31;4.80;1.00
37032;DHT22;22940;52.266;10.536;2023-02-26T18:12:57;4.80;1.00
37032;DHT22;22940;52.266;10.536;2023-02-26T18:15:24;4.70;1.00
37032;DHT22;22940;52.266;10.536;2023-02-26T18:17:49;4.60;1.00
37032;DHT22;22940;52.266;10.536;2023-02-26T18:20:16;4.60;1.00
37032;DHT22;22940;52.266;10.536;2023-02-26T18:22:42;4.50;1.00
37032;DHT22;22940;52.266;10.536;2023-02-26T18:25:08;4.60;1.00
37032;DHT22;22940;52.266;10.536;2023-02-26T18:27:35;4.60;1.00
37032;DHT22;22940;52.266;10.536;2023-02-26T18:30:01;4.70;1.00
37032;DHT22;22940;52.266;10.536;2023-02-26T18:32:28;4.90;1.00
37032;DHT22;22940;52.266;10.536;2023-02-26T18:34:54;5.00;1.00
37032;DHT22;22940;52.266;10.536;2023-02-26T18:37:21;5.00;1.00
37032;DHT22;22940;52.266;10.536;2023-02-26T18:39:47;4.60;1.00
37032;DHT22;22940;52.266;10.536;2023-02-26T18:42:20;4.50;1.00
37032;DHT22;22940;52.266;10.536;2023-02-26T18:44:46;4.30;1.00
37032;DHT22;22940;52.266;10.536;2023-02-26T18:47:12;4.50;1.00
37032;DHT22;22940;52.266;10.536;2023-02-26T18:49:38;4.40;1.00
37032;DHT22;22940;52.266;10.536;2023-02-26T18:52:03;4.40;1.00
37032;DHT22;22940;52.266;10.536;2023-02-26T18:54:29;4.20;1.00
37032;DHT22;22940;52.266;10.536;2023-02-26T18:56:54;4.20;1.00
37032;DHT22;22940;52.266;10.536;2023-02-26T18:59:20;4.10;1.00
37032;DHT22;22940;52.266;10.536;2023-02-26T19:01:45;4.20;1.00
37032;DHT22;22940;52.266;10.536;2023-02-26T19:04:12;4.20;1.00
37032;DHT22;22940;52.266;10.536;2023-02-26T19:06:37;4.40;1.00
37032;DHT22;22940;52.266;10.536;2023-02-26T19:09:03;4.70;1.00
37032;DHT22;22940;52.266;10.536;2023-02-26T19:11:29;4.80;1.00
37032;DHT22;22940;52.266;10.536;2023-02-26T19:13:54;4.90;1.00
37032;DHT22;22940;52.266;10.536;2023-02-26T19:16:20;5.00;1.00
37032;DHT22;22940;52.266;10.536;2023-02-26T19:18:47;4.90;1.00
37032;DHT22;22940;52.266;10.536;2023-02-26T19:21:13;5.00;1.00
37032;DHT22;22940;52.266;10.536;2023-02-26T19:23:38;5.10;1.00
37032;DHT22;22940;52.266;10.536;2023-02-26T19:26:04;5.00;1.00
37032;DHT22;22940;52.266;10.536;2023-02-26T19:28:30;5.00;1.00
37032;DHT22;22940;52.266;10.536;2023-02-26T19:30:56;5.00;1.00
37032;DHT22;22940;52.266;10.536;2023-02-26T19:33:22;5.00;1.00
37032;DHT22;22940;52.266;10.536;2023-02-26T19:35:49;4.90;1.00
37032;DHT22;22940;52.266;10.536;2023-02-26T19:38:14;5.00;1.00
37032;DHT22;22940;52.266;10.536;2023-02-26T19:40:40;4.90;1.00
37032;DHT22;22940;52.266;10.536;2023-02-26T19:43:05;4.90;1.00
37032;DHT22;22940;52.266;10.536;2023-02-26T19:45:31;4.90;1.00
37032;DHT22;22940;52.266;10.536;2023-02-26T19:47:56;5.00;1.00
37032;DHT22;22940;52.266;10.536;2023-02-26T19:50:22;5.00;1.00
37032;DHT22;22940;52.266;10.536;2023-02-26T19:52:50;5.00;1.00
37032;DHT22;22940;52.266;10.536;2023-02-26T19:55:15;5.00;1.00
37032;DHT22;22940;52.266;10.536;2023-02-26T19:57:41;4.90;1.00
37032;DHT22;22940;52.266;10.536;2023-02-26T20:00:07;4.80;1.00
37032;DHT22;22940;52.266;10.536;2023-02-26T20:02:33;4.80;1.00
37032;DHT22;22940;52.266;10.536;2023-02-26T20:04:58;4.80;1.00
37032;DHT22;22940;52.266;10.536;2023-02-26T20:07:24;4.70;1.00
37032;DHT22;22940;52.266;10.536;2023-02-26T20:09:50;4.60;1.00
37032;DHT22;22940;52.266;10.536;2023-02-26T20:12:16;4.60;1.00
37032;DHT22;22940;52.266;10.536;2023-02-26T20:14:41;4.60;1.00
37032;DHT22;22940;52.266;10.536;2023-02-26T20:17:07;4.60;1.00
37032;DHT22;22940;52.266;10.536;2023-02-26T20:19:33;4.60;1.00
37032;DHT22;22940;52.266;10.536;2023-02-26T20:21:59;4.60;1.00
37032;DHT22;22940;52.266;10.536;2023-02-26T20:24:24;4.60;1.00
37032;DHT22;22940;52.266;10.536;2023-02-26T20:26:50;4.50;1.00
37032;DHT22;22940;52.266;10.536;2023-02-26T20:29:16;4.50;1.00
37032;DHT22;22940;52.266;10.536;2023-02-26T20:31:45;4.50;1.00
37032;DHT22;22940;52.266;10.536;2023-02-26T20:34:14;4.40;1.00
37032;DHT22;22940;52.266;10.536;2023-02-26T20:36:42;4.50;1.00
37032;DHT22;22940;52.266;10.536;2023-02-26T20:39:14;4.40;1.00
37032;DHT22;22940;52.266;10.536;2023-02-26T20:41:39;4.50;1.00
37032;DHT22;22940;52.266;10.536;2023-02-26T20:44:05;4.40;1.00
37032;DHT22;22940;52.266;10.536;2023-02-26T20:46:30;4.30;1.00
37032;DHT22;22940;52.266;10.536;2023-02-26T20:49:00;4.40;1.00
37032;DHT22;22940;52.266;10.536;2023-02-26T20:51:27;4.40;1.00
37032;DHT22;22940;52.266;10.536;2023-02-26T20:53:52;4.40;1.00
37032;DHT22;22940;52.266;10.536;2023-02-26T20:56:18;4.30;1.00
37032;DHT22;22940;52.266;10.536;2023-02-26T20:58:44;4.40;1.00
37032;DHT22;22940;52.266;10.536;2023-02-26T21:01:09;4.20;1.00
37032;DHT22;22940;52.266;10.536;2023-02-26T21:03:35;4.30;1.00
37032;DHT22;22940;52.266;10.536;2023-02-26T21:06:00;4.20;1.00
37032;DHT22;22940;52.266;10.536;2023-02-26T21:08:26;4.00;1.00
37032;DHT22;22940;52.266;10.536;2023-02-26T21:10:51;4.00;1.00
37032;DHT22;22940;52.266;10.536;2023-02-26T21:13:17;3.90;1.00
37032;DHT22;22940;52.266;10.536;2023-02-26T21:15:43;4.00;1.00
37032;DHT22;22940;52.266;10.536;2023-02-26T21:18:08;3.80;1.00
37032;DHT22;22940;52.266;10.536;2023-02-26T21:20:34;3.80;1.00
37032;DHT22;22940;52.266;10.536;2023-02-26T21:22:59;3.70;1.00
37032;DHT22;22940;52.266;10.536;2023-02-26T21:25:25;3.60;1.00
37032;DHT22;22940;52.266;10.536;2023-02-26T21:27:51;3.70;1.00
37032;DHT22;22940;52.266;10.536;2023-02-26T21:30:17;3.80;1.00
37032;DHT22;22940;52.266;10.536;2023-02-26T21:32:44;3.90;1.00
37032;DHT22;22940;52.266;10.536;2023-02-26T21:35:10;3.80;1.00
37032;DHT22;22940;52.266;10.536;2023-02-26T21:37:40;3.80;1.00
37032;DHT22;22940;52.266;10.536;2023-02-26T21:40:06;3.90;1.00
37032;DHT22;22940;52.266;10.536;2023-02-26T21:42:31;3.90;1.00
37032;DHT22;22940;52.266;10.536;2023-02-26T21:44:57;3.80;1.00
37032;DHT22;22940;52.266;10.536;2023-02-26T21:47:22;3.70;1.00
37032;DHT22;22940;52.266;10.536;2023-02-26T21:49:48;3.60;1.00
37032;DHT22;22940;52.266;10.536;2023-02-26T21:52:14;3.60;1.00
37032;DHT22;22940;52.266;10.536;2023-02-26T21:54:39;3.40;1.00
37032;DHT22;22940;52.266;10.536;2023-02-26T21:57:05;3.10;1.00
37032;DHT22;22940;52.266;10.536;2023-02-26T21:59:30;3.00;1.00
37032;DHT22;22940;52.266;10.536;2023-02-26T22:01:56;2.90;1.00
37032;DHT22;22940;52.266;10.536;2023-02-26T22:04:22;2.70;1.00
37032;DHT22;22940;52.266;10.536;2023-02-26T22:06:47;2.80;1.00
37032;DHT22;22940;52.266;10.536;2023-02-26T22:09:13;2.80;1.00
37032;DHT22;22940;52.266;10.536;2023-02-26T22:11:38;2.80;1.00
37032;DHT22;22940;52.266;10.536;2023-02-26T22:14:04;2.90;1.00
37032;DHT22;22940;52.266;10.536;2023-02-26T22:16:30;2.60;1.00
37032;DHT22;22940;52.266;10.536;2023-02-26T22:18:55;2.50;1.00
37032;DHT22;22940;52.266;10.536;2023-02-26T22:21:21;2.60;1.00
37032;DHT22;22940;52.266;10.536;2023-02-26T22:23:48;2.80;1.00
37032;DHT22;22940;52.266;10.536;2023-02-26T22:26:13;3.00;1.00
37032;DHT22;22940;52.266;10.536;2023-02-26T22:28:39;3.10;1.00
37032;DHT22;22940;52.266;10.536;2023-02-26T22:31:04;3.10;1.00
37032;DHT22;22940;52.266;10.536;2023-02-26T22:33:30;3.10;1.00
37032;DHT22;22940;52.266;10.536;2023-02-26T22:35:56;3.00;1.00
37032;DHT22;22940;52.266;10.536;2023-02-26T22:38:22;2.90;1.00
37032;DHT22;22940;52.266;10.536;2023-02-26T22:40:47;2.80;1.00
37032;DHT22;22940;52.266;10.536;2023-02-26T22:43:13;2.80;1.00
37032;DHT22;22940;52.266;10.536;2023-02-26T22:45:38;2.90;1.00
37032;DHT22;22940;52.266;10.536;2023-02-26T22:48:04;3.00;1.00
37032;DHT22;22940;52.266;10.536;2023-02-26T22:50:30;3.10;1.00
37032;DHT22;22940;52.266;10.536;2023-02-26T22:52:56;3.00;1.00
37032;DHT22;22940;52.266;10.536;2023-02-26T22:55:21;2.90;1.00
37032;DHT22;22940;52.266;10.536;2023-02-26T22:57:48;2.80;1.00
37032;DHT22;22940;52.266;10.536;2023-02-26T23:00:14;2.80;1.00
37032;DHT22;22940;52.266;10.536;2023-02-26T23:02:40;2.70;1.00
37032;DHT22;22940;52.266;10.536;2023-02-26T23:05:06;2.40;1.00
37032;DHT22;22940;52.266;10.536;2023-02-26T23:07:33;2.20;1.00
37032;DHT22;22940;52.266;10.536;2023-02-26T23:09:59;2.20;1.00
37032;DHT22;22940;52.266;10.536;2023-02-26T23:12:24;2.20;1.00
37032;DHT22;22940;52.266;10.536;2023-02-26T23:14:50;2.30;1.00
37032;DHT22;22940;52.266;10.536;2023-02-26T23:17:15;2.20;1.00
37032;DHT22;22940;52.266;10.536;2023-02-26T23:19:41;2.20;1.00
37032;DHT22;22940;52.266;10.536;2023-02-26T23:22:07;2.20;1.00
37032;DHT22;22940;52.266;10.536;2023-02-26T23:24:32;2.30;1.00
37032;DHT22;22940;52.266;10.536;2023-02-26T23:26:58;2.30;1.00
37032;DHT22;22940;52.266;10.536;2023-02-26T23:29:23;2.30;1.00
37032;DHT22;22940;52.266;10.536;2023-02-26T23:31:49;2.40;1.00
37032;DHT22;22940;52.266;10.536;2023-02-26T23:34:15;2.30;1.00
37032;DHT22;22940;52.266;10.536;2023-02-26T23:36:40;2.30;1.00
37032;DHT22;22940;52.266;10.536;2023-02-26T23:39:06;2.30;1.00
37032;DHT22;22940;52.266;10.536;2023-02-26T23:41:33;2.40;1.00
37032;DHT22;22940;52.266;10.536;2023-02-26T23:43:58;2.50;1.00
37032;DHT22;22940;52.266;10.536;2023-02-26T23:46:24;2.70;1.00
37032;DHT22;22940;52.266;10.536;2023-02-26T23:48:49;2.80;1.00
37032;DHT22;22940;52.266;10.536;2023-02-26T23:51:15;2.80;1.00
37032;DHT22;22940;52.266;10.536;2023-02-26T23:53:40;2.60;1.00
37032;DHT22;22940;52.266;10.536;2023-02-26T23:56:06;2.50;1.00
37032;DHT22;22940;52.266;10.536;2023-02-26T23:58:31;2.50;1.00
